Time;durP1;ratioP1;P1;durP2;ratioP2;P2;SDS_P1;SDS_P2;PMS_P1;PMS_P2;Temp;Humidity;BMP_temperature;BMP_pressure;BME280_temperature;BME280_humidity;BME280_pressure;Samples;Min_cycle;Max_cycle;Signal;HPM_P1;HPM_P2
2023/01/15 00:01:37;;;;;;;0.80;0.80;;;18.20;49.60;;;;;;5018192;28;20901;-83
2023/01/15 00:04:06;;;;;;;0.88;0.88;;;18.20;49.60;;;;;;5018093;28;20211;-83
2023/01/15 00:06:36;;;;;;;1.00;1.00;;;18.20;49.70;;;;;;5017748;28;20234;-83
2023/01/15 00:09:03;;;;;;;0.90;0.90;;;18.10;49.60;;;;;;5017590;28;20565;-83
2023/01/15 00:11:30;;;;;;;0.90;0.90;;;18.10;49.60;;;;;;5018187;28;20199;-83
2023/01/15 00:13:57;;;;;;;0.80;0.80;;;18.10;49.60;;;;;;5017586;28;20627;-82
2023/01/15 00:16:25;;;;;;;0.90;0.90;;;18.10;49.60;;;;;;5017847;28;20231;-82
2023/01/15 00:18:53;;;;;;;1.00;0.90;;;18.10;49.70;;;;;;5017395;28;20720;-82
2023/01/15 00:21:22;;;;;;;0.80;0.80;;;18.10;49.80;;;;;;5016893;28;20268;-82
2023/01/15 00:29:19;;;;;;;0.98;0.90;;;18.10;49.80;;;;;;5017431;28;20219;-82
2023/01/15 00:31:52;;;;;;;1.00;1.00;;;18.00;49.70;;;;;;5016961;28;20200;-82
2023/01/15 00:34:19;;;;;;;0.70;0.70;;;18.00;49.80;;;;;;5017353;28;20188;-82
2023/01/15 00:36:48;;;;;;;0.85;0.85;;;18.00;49.90;;;;;;5017492;28;20576;-82
2023/01/15 00:39:15;;;;;;;0.73;0.73;;;18.00;49.90;;;;;;5016704;28;20661;-82
2023/01/15 00:41:43;;;;;;;0.85;0.82;;;18.00;49.90;;;;;;5017117;28;20200;-82
2023/01/15 00:44:10;;;;;;;1.02;0.75;;;18.00;49.80;;;;;;5017280;28;20620;-82
2023/01/15 00:46:37;;;;;;;0.65;0.65;;;18.00;49.90;;;;;;5016990;28;20215;-82
2023/01/15 00:49:04;;;;;;;0.70;0.70;;;18.00;50.00;;;;;;5016717;28;20216;-82
2023/01/15 00:51:32;;;;;;;1.38;0.80;;;18.00;50.00;;;;;;5034384;28;20196;-82
2023/01/15 00:54:00;;;;;;;0.90;0.90;;;18.00;50.00;;;;;;5016531;28;20199;-82
2023/01/15 00:56:28;;;;;;;0.80;0.80;;;18.00;50.00;;;;;;5016937;28;20595;-82
2023/01/15 00:58:56;;;;;;;0.80;0.80;;;18.00;50.00;;;;;;5016510;28;20201;-82
2023/01/15 01:01:24;;;;;;;1.00;0.90;;;18.00;50.00;;;;;;5016442;28;20636;-82
2023/01/15 01:03:51;;;;;;;0.80;0.80;;;18.00;50.00;;;;;;5016495;28;20223;-82
2023/01/15 01:06:19;;;;;;;0.70;0.70;;;18.00;50.10;;;;;;5018603;28;20224;-83
2023/01/15 01:08:46;;;;;;;0.75;0.75;;;17.90;50.00;;;;;;5017397;28;20247;-83
2023/01/15 01:11:15;;;;;;;0.73;0.70;;;17.90;50.00;;;;;;5000113;28;20263;-83
2023/01/15 01:13:42;;;;;;;0.82;0.82;;;17.90;50.00;;;;;;5016524;28;20206;-83
2023/01/15 01:16:21;;;;;;;0.90;0.90;;;17.90;50.00;;;;;;5016847;28;20716;-83
2023/01/15 01:18:50;;;;;;;0.90;0.90;;;17.90;50.00;;;;;;5016494;28;20655;-81
2023/01/15 01:21:17;;;;;;;0.80;0.80;;;17.90;50.00;;;;;;5016651;28;20203;-81
2023/01/15 01:23:44;;;;;;;1.35;1.00;;;17.90;50.00;;;;;;5035294;28;20196;-81
2023/01/15 01:26:12;;;;;;;0.80;0.80;;;17.90;50.00;;;;;;5016741;28;20220;-81
2023/01/15 01:28:41;;;;;;;0.95;0.95;;;17.80;50.10;;;;;;5016519;28;20223;-81
2023/01/15 01:31:09;;;;;;;0.93;0.93;;;17.90;50.10;;;;;;5016773;28;20196;-81
2023/01/15 01:33:36;;;;;;;0.93;0.73;;;17.90;50.20;;;;;;5020506;28;20245;-81
2023/01/15 01:36:03;;;;;;;0.70;0.70;;;17.90;50.20;;;;;;5020917;28;20220;-81
2023/01/15 01:38:30;;;;;;;0.98;0.90;;;17.80;50.10;;;;;;5020791;28;20200;-81
2023/01/15 01:40:58;;;;;;;0.70;0.70;;;17.80;50.10;;;;;;5020702;28;20207;-81
2023/01/15 01:43:28;;;;;;;0.70;0.70;;;17.90;50.20;;;;;;5020756;28;20338;-81
2023/01/15 01:45:57;;;;;;;0.68;0.68;;;17.80;50.20;;;;;;5020432;28;20216;-81
2023/01/15 01:48:26;;;;;;;0.70;0.70;;;17.80;50.20;;;;;;5020498;28;20291;-81
2023/01/15 01:50:54;;;;;;;0.82;0.82;;;17.80;50.30;;;;;;5020537;28;20287;-81
2023/01/15 01:53:23;;;;;;;0.88;0.88;;;17.80;50.20;;;;;;5020137;28;20207;-81
2023/01/15 01:55:50;;;;;;;0.80;0.80;;;17.80;50.30;;;;;;5019692;28;20277;-81
2023/01/15 01:58:17;;;;;;;0.70;0.70;;;17.80;50.40;;;;;;5019928;28;20200;-80
2023/01/15 02:00:46;;;;;;;0.80;0.80;;;17.80;50.30;;;;;;5020225;28;20200;-80
2023/01/15 02:03:14;;;;;;;1.17;0.60;;;17.80;50.30;;;;;;5020259;28;20214;-80
2023/01/15 02:05:43;;;;;;;0.70;0.70;;;17.80;50.30;;;;;;5019459;28;20651;-80
2023/01/15 02:08:11;;;;;;;1.85;0.80;;;17.80;50.40;;;;;;5019758;28;20200;-80
2023/01/15 02:10:39;;;;;;;0.75;0.75;;;17.80;50.40;;;;;;5019935;28;20246;-80
2023/01/15 02:13:13;;;;;;;0.60;0.60;;;17.80;50.50;;;;;;5004137;28;20200;-80
2023/01/15 02:15:43;;;;;;;0.63;0.63;;;17.70;50.40;;;;;;5020338;28;20269;-80
2023/01/15 02:18:15;;;;;;;0.75;0.75;;;17.70;50.60;;;;;;5019770;28;20199;-81
2023/01/15 02:20:45;;;;;;;0.82;0.82;;;17.70;50.50;;;;;;5019933;28;20188;-81
2023/01/15 02:23:59;;;;;;;0.68;0.68;;;17.70;50.50;;;;;;5020144;28;20192;-81
2023/01/15 02:26:58;;;;;;;0.70;0.70;;;17.70;50.50;;;;;;4987613;28;20216;-81
2023/01/15 02:29:29;;;;;;;0.90;0.90;;;17.70;50.50;;;;;;5019772;28;20212;-81
2023/01/15 02:31:57;;;;;;;0.70;0.70;;;17.70;50.50;;;;;;5003195;28;20188;-81
2023/01/15 02:34:26;;;;;;;1.02;0.95;;;17.70;50.50;;;;;;5019484;28;20561;-81
2023/01/15 02:36:54;;;;;;;0.90;0.90;;;17.70;50.50;;;;;;5019698;28;20648;-81
2023/01/15 02:39:27;;;;;;;0.80;0.80;;;17.70;50.60;;;;;;5019151;28;20192;-81
2023/01/15 02:41:56;;;;;;;0.90;0.90;;;17.70;50.60;;;;;;5019119;28;20200;-81
2023/01/15 02:44:29;;;;;;;0.70;0.70;;;17.70;50.60;;;;;;5019470;28;20204;-81
2023/01/15 02:46:57;;;;;;;0.77;0.75;;;17.70;50.60;;;;;;5019153;28;20697;-81
2023/01/15 02:49:26;;;;;;;0.90;0.90;;;17.70;50.70;;;;;;5019336;28;20216;-81
2023/01/15 02:52:00;;;;;;;0.90;0.68;;;17.70;50.60;;;;;;5019529;28;20283;-81
2023/01/15 02:54:29;;;;;;;0.60;0.60;;;17.70;50.70;;;;;;5002688;28;20200;-81
2023/01/15 02:56:57;;;;;;;0.70;0.70;;;17.70;50.70;;;;;;5018523;28;20220;-81
2023/01/15 02:59:26;;;;;;;0.77;0.77;;;17.70;50.70;;;;;;5018679;28;20192;-81
2023/01/15 03:01:56;;;;;;;0.60;0.60;;;17.70;50.70;;;;;;5018811;28;20200;-81
2023/01/15 03:04:27;;;;;;;0.73;0.73;;;17.70;50.70;;;;;;5020369;28;20245;-81
2023/01/15 03:09:41;;;;;;;0.60;0.60;;;17.60;50.70;;;;;;4503612;22;20291;-53
2023/01/15 03:12:12;;;;;;;0.60;0.60;;;17.70;50.80;;;;;;4997381;28;20717;-55
2023/01/15 03:14:44;;;;;;;0.60;0.60;;;17.70;50.80;;;;;;4997360;28;20189;-55
2023/01/15 03:17:17;;;;;;;0.70;0.70;;;17.60;50.80;;;;;;4998070;28;20286;-55
2023/01/15 03:19:47;;;;;;;0.50;0.50;;;17.70;50.80;;;;;;5014949;28;20554;-55
2023/01/15 03:22:21;;;;;;;0.60;0.60;;;17.60;50.80;;;;;;5015139;28;20240;-55
2023/01/15 03:24:51;;;;;;;0.65;0.65;;;17.60;50.80;;;;;;4997399;28;20288;-55
2023/01/15 03:27:19;;;;;;;0.60;0.60;;;17.60;50.90;;;;;;4997062;28;20213;-55
2023/01/15 03:29:53;;;;;;;0.57;0.50;;;17.70;51.00;;;;;;4997109;28;20217;-55
2023/01/15 03:32:21;;;;;;;0.93;0.80;;;17.60;50.90;;;;;;4997012;28;20203;-55
2023/01/15 03:34:50;;;;;;;0.57;0.57;;;17.60;50.90;;;;;;4996986;28;20283;-56
2023/01/15 03:37:19;;;;;;;1.98;0.75;;;17.60;50.90;;;;;;4997063;28;20255;-55
2023/01/15 03:39:46;;;;;;;0.60;0.60;;;17.60;50.90;;;;;;4997001;28;20583;-55
2023/01/15 03:42:30;;;;;;;0.70;0.70;;;17.60;51.00;;;;;;4997102;28;20279;-55
2023/01/15 03:45:00;;;;;;;0.60;0.60;;;17.60;51.00;;;;;;5014720;28;20193;-55
2023/01/15 03:47:34;;;;;;;0.60;0.60;;;17.60;51.00;;;;;;4996807;28;20220;-55
2023/01/15 03:50:04;;;;;;;0.77;0.77;;;17.60;51.00;;;;;;4996711;28;20232;-55
2023/01/15 03:52:43;;;;;;;0.40;0.40;;;17.60;51.00;;;;;;4996851;28;20188;-55
2023/01/15 03:55:13;;;;;;;0.70;0.70;;;17.60;51.10;;;;;;4996024;28;20201;-55
2023/01/15 03:57:45;;;;;;;0.50;0.50;;;17.60;51.10;;;;;;4996638;28;20217;-55
2023/01/15 04:00:15;;;;;;;0.73;0.73;;;17.60;51.20;;;;;;4996470;28;20279;-55
2023/01/15 04:02:52;;;;;;;0.43;0.43;;;17.60;51.20;;;;;;5014170;28;20173;-55
2023/01/15 04:05:20;;;;;;;0.55;0.50;;;17.60;51.10;;;;;;4996380;28;20192;-55
2023/01/15 04:07:48;;;;;;;0.60;0.60;;;17.60;51.10;;;;;;4996108;28;20213;-55
2023/01/15 04:10:17;;;;;;;0.30;0.30;;;17.60;51.20;;;;;;4996521;28;20267;-55
2023/01/15 04:12:44;;;;;;;0.50;0.50;;;17.60;51.30;;;;;;4996217;28;20682;-55
2023/01/15 04:15:11;;;;;;;0.50;0.50;;;17.60;51.30;;;;;;4996247;28;20196;-54
2023/01/15 04:17:38;;;;;;;0.73;0.73;;;17.60;51.40;;;;;;4996153;28;20248;-55
2023/01/15 04:20:08;;;;;;;0.63;0.63;;;17.50;51.40;;;;;;4996281;28;20199;-55
2023/01/15 04:22:39;;;;;;;0.73;0.73;;;17.60;51.40;;;;;;4996914;28;20185;-55
2023/01/15 04:25:07;;;;;;;0.50;0.50;;;17.60;51.40;;;;;;5013726;28;20193;-55
2023/01/15 04:27:34;;;;;;;0.60;0.60;;;17.60;51.40;;;;;;5013696;28;20288;-55
2023/01/15 04:30:02;;;;;;;0.57;0.55;;;17.60;51.30;;;;;;4995842;28;20213;-55
2023/01/15 04:32:29;;;;;;;0.55;0.55;;;17.60;51.30;;;;;;5013598;28;20185;-56
2023/01/15 04:34:56;;;;;;;0.43;0.43;;;17.70;51.30;;;;;;5013771;28;20279;-55
2023/01/15 04:37:25;;;;;;;0.70;0.60;;;17.70;51.20;;;;;;5013538;28;20215;-55
2023/01/15 04:39:52;;;;;;;0.50;0.50;;;17.70;51.00;;;;;;5013971;28;20677;-55
2023/01/15 04:45:04;;;;;;;0.60;0.60;;;17.80;50.80;;;;;;4996517;28;20249;-55
2023/01/15 04:47:32;;;;;;;0.60;0.60;;;17.80;50.70;;;;;;4995696;28;20248;-55
2023/01/15 04:49:59;;;;;;;0.50;0.50;;;17.90;50.80;;;;;;5013640;28;20299;-55
2023/01/15 04:52:28;;;;;;;0.50;0.50;;;17.90;50.60;;;;;;4995665;28;20201;-56
2023/01/15 04:54:55;;;;;;;0.60;0.60;;;18.00;50.60;;;;;;5013455;28;20276;-55
2023/01/15 04:57:22;;;;;;;0.63;0.63;;;18.00;50.50;;;;;;4995665;28;20275;-55
2023/01/15 04:59:49;;;;;;;0.73;0.73;;;18.00;50.40;;;;;;5013685;28;20272;-55
2023/01/15 05:02:17;;;;;;;0.50;0.50;;;18.00;50.30;;;;;;5013233;28;20185;-55
2023/01/15 05:04:44;;;;;;;0.40;0.40;;;18.00;50.40;;;;;;5013310;28;20200;-55
2023/01/15 05:07:11;;;;;;;0.52;0.52;;;18.00;50.30;;;;;;4995890;28;20638;-55
2023/01/15 05:09:40;;;;;;;0.70;0.70;;;18.00;50.40;;;;;;5013522;28;20274;-55
2023/01/15 05:12:07;;;;;;;0.50;0.50;;;18.10;50.40;;;;;;4995855;28;20686;-55
2023/01/15 05:14:34;;;;;;;0.50;0.50;;;18.00;50.30;;;;;;4995964;28;20725;-56
2023/01/15 05:17:01;;;;;;;0.50;0.50;;;18.10;50.40;;;;;;5013273;28;20205;-55
2023/01/15 05:19:28;;;;;;;0.68;0.60;;;18.10;50.40;;;;;;5013296;28;20737;-55
2023/01/15 05:21:56;;;;;;;0.50;0.50;;;18.10;50.40;;;;;;5013401;28;20663;-55
2023/01/15 05:24:23;;;;;;;0.50;0.50;;;18.10;50.30;;;;;;4995533;28;20666;-55
2023/01/15 05:26:52;;;;;;;0.50;0.50;;;18.10;50.30;;;;;;4995510;28;20570;-55
2023/01/15 05:29:19;;;;;;;0.47;0.47;;;18.10;50.30;;;;;;5013002;28;20189;-55
2023/01/15 05:31:47;;;;;;;0.80;0.80;;;18.10;50.40;;;;;;5013057;28;20196;-55
2023/01/15 05:34:14;;;;;;;0.52;0.52;;;18.10;50.50;;;;;;5013007;28;20670;-55
2023/01/15 05:36:41;;;;;;;0.63;0.52;;;18.10;50.50;;;;;;5013099;28;20208;-55
2023/01/15 05:39:08;;;;;;;0.40;0.40;;;18.10;50.60;;;;;;5013077;28;20687;-55
2023/01/15 05:41:50;;;;;;;0.43;0.43;;;18.20;50.60;;;;;;4996216;28;20217;-55
2023/01/15 05:44:20;;;;;;;0.60;0.60;;;18.10;50.60;;;;;;5013241;28;20187;-55
2023/01/15 05:46:47;;;;;;;0.45;0.45;;;18.10;50.70;;;;;;5013538;28;20213;-55
2023/01/15 05:49:16;;;;;;;0.57;0.57;;;18.10;50.60;;;;;;4995782;28;20200;-55
2023/01/15 05:51:43;;;;;;;0.40;0.40;;;18.10;50.60;;;;;;5014783;28;20216;-56
2023/01/15 05:54:12;;;;;;;0.50;0.50;;;18.10;50.50;;;;;;4996651;28;20229;-56
2023/01/15 05:56:39;;;;;;;0.60;0.60;;;18.20;50.50;;;;;;4995688;28;20641;-55
2023/01/15 05:59:06;;;;;;;0.50;0.50;;;18.10;50.40;;;;;;5012992;28;20192;-55
2023/01/15 06:01:35;;;;;;;0.60;0.60;;;18.10;50.30;;;;;;5013011;28;20398;-55
2023/01/15 06:04:03;;;;;;;0.60;0.60;;;18.10;50.30;;;;;;4995117;28;20204;-55
2023/01/15 06:06:30;;;;;;;0.73;0.68;;;18.10;50.30;;;;;;5012616;28;20209;-55
2023/01/15 06:08:57;;;;;;;0.50;0.50;;;18.10;50.20;;;;;;5012833;28;20671;-55
2023/01/15 06:11:24;;;;;;;0.50;0.50;;;18.10;50.20;;;;;;4994933;28;20307;-55
2023/01/15 06:13:51;;;;;;;0.47;0.47;;;18.10;50.20;;;;;;4995301;28;20346;-55
2023/01/15 06:16:19;;;;;;;0.50;0.50;;;18.10;50.10;;;;;;4995374;28;20200;-55
2023/01/15 06:18:47;;;;;;;0.40;0.40;;;18.10;50.00;;;;;;4996207;28;20209;-55
2023/01/15 06:21:14;;;;;;;0.50;0.50;;;18.10;49.90;;;;;;5016339;28;20685;-55
2023/01/15 06:23:42;;;;;;;0.55;0.40;;;18.10;49.80;;;;;;5016409;28;20217;-55
2023/01/15 06:26:12;;;;;;;0.40;0.40;;;18.20;49.80;;;;;;5016851;28;20209;-55
2023/01/15 06:28:39;;;;;;;0.40;0.40;;;18.20;49.70;;;;;;5016498;28;20196;-55
2023/01/15 06:31:06;;;;;;;0.60;0.60;;;18.10;49.60;;;;;;5015819;28;20212;-55
2023/01/15 06:33:34;;;;;;;0.50;0.50;;;18.20;49.60;;;;;;5016121;28;20279;-55
2023/01/15 06:36:04;;;;;;;0.30;0.30;;;18.20;49.60;;;;;;4998785;28;20283;-55
2023/01/15 06:38:32;;;;;;;0.45;0.45;;;18.20;49.60;;;;;;5016147;28;20185;-55
2023/01/15 06:40:59;;;;;;;0.30;0.30;;;18.20;49.50;;;;;;4998470;28;20189;-56
2023/01/15 06:48:55;;;;;;;0.43;0.43;;;18.20;49.30;;;;;;4998603;28;20192;-55
2023/01/15 06:51:24;;;;;;;0.63;0.55;;;18.20;49.40;;;;;;5016122;28;20220;-55
2023/01/15 06:53:51;;;;;;;0.40;0.40;;;18.20;49.30;;;;;;5015954;28;20318;-55
2023/01/15 06:56:18;;;;;;;0.40;0.40;;;18.20;49.40;;;;;;5015931;28;20197;-55
2023/01/15 06:58:45;;;;;;;0.40;0.40;;;18.20;49.30;;;;;;5016197;28;20200;-54
2023/01/15 07:01:13;;;;;;;0.70;0.55;;;18.20;49.20;;;;;;5016283;28;20191;-55
2023/01/15 07:03:40;;;;;;;0.43;0.43;;;18.20;49.30;;;;;;5015802;28;20197;-55
2023/01/15 07:06:08;;;;;;;0.40;0.40;;;18.20;49.20;;;;;;5015611;28;20196;-55
2023/01/15 07:08:37;;;;;;;0.45;0.45;;;18.20;49.20;;;;;;5015340;28;20203;-55
2023/01/15 07:11:05;;;;;;;0.28;0.28;;;18.20;49.20;;;;;;5015557;28;20212;-54
2023/01/15 07:13:32;;;;;;;0.47;0.47;;;18.20;49.10;;;;;;5015597;28;20216;-55
2023/01/15 07:16:00;;;;;;;0.40;0.40;;;18.20;49.00;;;;;;4997408;28;20255;-55
2023/01/15 07:18:27;;;;;;;0.30;0.30;;;18.20;49.10;;;;;;4997605;28;20742;-55
2023/01/15 07:20:55;;;;;;;0.38;0.38;;;18.20;49.00;;;;;;4997459;28;20196;-55
2023/01/15 07:23:22;;;;;;;0.40;0.40;;;18.20;48.80;;;;;;5015066;28;20189;-55
2023/01/15 07:25:51;;;;;;;0.45;0.45;;;18.20;48.80;;;;;;5015315;28;20203;-55
2023/01/15 07:28:18;;;;;;;0.30;0.30;;;18.20;48.80;;;;;;5015048;28;20205;-55
2023/01/15 07:30:45;;;;;;;0.30;0.30;;;18.20;48.80;;;;;;4997223;28;20639;-55
2023/01/15 07:33:12;;;;;;;0.47;0.40;;;18.20;48.80;;;;;;5014786;28;20200;-55
2023/01/15 07:35:40;;;;;;;0.40;0.40;;;18.20;48.80;;;;;;4997280;28;20207;-55
2023/01/15 07:38:07;;;;;;;0.40;0.38;;;18.10;48.70;;;;;;4997087;28;20622;-55
2023/01/15 07:40:34;;;;;;;0.28;0.28;;;18.10;48.70;;;;;;5014930;28;20283;-55
2023/01/15 07:51:18;;;;;;;0.50;0.45;;;18.10;48.70;;;;;;4996840;28;20250;-55
2023/01/15 07:53:45;;;;;;;0.30;0.30;;;18.10;48.60;;;;;;5014515;28;20728;-55
2023/01/15 07:56:12;;;;;;;0.45;0.45;;;18.10;48.70;;;;;;4996853;28;20227;-56
2023/01/15 07:58:40;;;;;;;0.40;0.40;;;18.10;48.70;;;;;;5014349;28;20195;-56
2023/01/15 08:01:07;;;;;;;0.45;0.45;;;18.10;48.70;;;;;;5014468;28;20193;-55
2023/01/15 08:03:35;;;;;;;0.38;0.38;;;18.10;48.70;;;;;;4996507;28;20682;-55
2023/01/15 08:06:02;;;;;;;0.35;0.35;;;18.10;48.50;;;;;;5014187;28;20200;-55
2023/01/15 08:08:29;;;;;;;0.28;0.28;;;18.10;48.70;;;;;;4996440;28;20624;-55
2023/01/15 08:16:31;;;;;;;0.30;0.30;;;18.00;48.60;;;;;;4984100;28;20235;-55
2023/01/15 08:18:58;;;;;;;0.30;0.30;;;18.00;48.60;;;;;;5013914;28;20196;-55
2023/01/15 08:21:25;;;;;;;0.30;0.30;;;18.00;48.60;;;;;;5014066;28;20288;-56
2023/01/15 08:23:52;;;;;;;0.40;0.40;;;18.00;48.60;;;;;;5014129;28;20280;-55
2023/01/15 08:26:19;;;;;;;0.40;0.40;;;18.00;48.60;;;;;;5012725;28;20501;-55
2023/01/15 08:28:48;;;;;;;0.85;0.40;;;18.10;48.60;;;;;;4996100;28;20753;-54
2023/01/15 08:31:15;;;;;;;0.40;0.40;;;18.10;48.70;;;;;;5013821;28;20239;-55
2023/01/15 08:33:42;;;;;;;0.60;0.55;;;18.10;48.70;;;;;;5013801;28;20504;-56
2023/01/15 08:36:10;;;;;;;0.55;0.55;;;18.10;49.80;;;;;;4995732;28;20197;-55
2023/01/15 08:38:36;;;;;;;0.90;0.70;;;18.10;49.20;;;;;;5013712;28;20552;-55
2023/01/15 08:41:03;;;;;;;1.02;0.75;;;18.00;49.60;;;;;;4995246;28;20228;-55
2023/01/15 08:43:32;;;;;;;3.90;2.88;;;18.00;50.50;;;;;;4995763;28;20300;-55
2023/01/15 08:46:00;;;;;;;707.63;508.48;;;18.00;50.80;;;;;;4995726;28;20200;-55
2023/01/15 08:48:28;;;;;;;395.90;313.60;;;18.00;54.90;;;;;;5013257;28;20781;-56
2023/01/15 08:50:55;;;;;;;263.95;203.88;;;18.00;55.00;;;;;;5013112;28;20208;-56
2023/01/15 08:53:23;;;;;;;242.40;178.43;;;18.00;54.50;;;;;;5013391;28;20268;-56
2023/01/15 08:55:50;;;;;;;246.60;193.35;;;18.10;54.10;;;;;;5013475;28;20188;-55
2023/01/15 08:58:17;;;;;;;201.63;155.02;;;18.10;53.90;;;;;;4995732;28;20221;-56
2023/01/15 09:00:44;;;;;;;165.27;124.60;;;18.10;53.80;;;;;;4995663;28;20195;-56
2023/01/15 09:03:13;;;;;;;161.00;123.90;;;18.10;52.70;;;;;;4995658;28;20207;-56
2023/01/15 09:05:40;;;;;;;157.18;123.18;;;18.10;52.70;;;;;;5013288;28;20719;-56
2023/01/15 09:08:07;;;;;;;163.73;119.53;;;18.20;53.20;;;;;;5012965;28;20216;-55
2023/01/15 09:10:35;;;;;;;147.23;114.50;;;18.20;53.00;;;;;;5013148;28;20181;-55
2023/01/15 09:13:02;;;;;;;148.93;111.25;;;18.20;52.70;;;;;;5013239;28;20589;-56
2023/01/15 09:15:30;;;;;;;150.65;114.30;;;18.20;52.70;;;;;;5013333;28;20197;-56
2023/01/15 09:17:57;;;;;;;137.70;105.68;;;18.20;52.40;;;;;;4995251;28;20220;-56
2023/01/15 09:20:25;;;;;;;133.05;105.93;;;18.20;52.90;;;;;;4995273;28;20215;-55
2023/01/15 09:22:52;;;;;;;130.40;100.57;;;18.20;52.50;;;;;;4995384;28;20216;-56
2023/01/15 09:25:22;;;;;;;126.10;100.68;;;18.20;52.70;;;;;;5013196;28;20192;-56
2023/01/15 09:27:49;;;;;;;124.35;96.38;;;18.20;52.10;;;;;;4995483;28;20324;-56
2023/01/15 09:30:18;;;;;;;135.35;97.80;;;18.20;52.20;;;;;;4995205;28;20219;-57
2023/01/15 09:32:45;;;;;;;123.40;94.28;;;18.30;52.50;;;;;;4995286;28;20597;-56
2023/01/15 09:35:13;;;;;;;120.43;98.47;;;18.30;53.40;;;;;;5011941;28;20450;-55
2023/01/15 09:37:41;;;;;;;116.25;90.05;;;18.30;53.00;;;;;;4995093;28;20267;-55
2023/01/15 09:40:16;;;;;;;118.40;94.22;;;18.30;52.70;;;;;;5013149;28;20192;-56
2023/01/15 09:42:45;;;;;;;111.63;87.30;;;18.30;52.90;;;;;;5012840;28;20177;-55
2023/01/15 09:45:19;;;;;;;107.82;86.65;;;18.30;53.00;;;;;;5012860;28;20191;-56
2023/01/15 09:47:57;;;;;;;105.45;78.90;;;18.30;53.20;;;;;;4995250;28;20227;-56
2023/01/15 09:50:27;;;;;;;108.13;82.05;;;18.30;53.50;;;;;;4995407;28;20206;-55
2023/01/15 09:53:10;;;;;;;99.22;79.90;;;18.30;53.60;;;;;;4995155;28;20225;-55
2023/01/15 09:55:42;;;;;;;99.97;77.07;;;18.30;53.60;;;;;;4998863;28;20304;-55
2023/01/15 09:58:09;;;;;;;106.55;78.22;;;18.30;53.30;;;;;;5016382;28;20209;-55
2023/01/15 10:00:39;;;;;;;103.03;77.07;;;18.30;53.60;;;;;;5016569;28;20211;-55
2023/01/15 10:03:07;;;;;;;96.70;75.25;;;18.40;53.30;;;;;;5016411;28;20659;-56
2023/01/15 10:05:36;;;;;;;97.28;73.70;;;18.40;53.30;;;;;;5016699;28;20197;-55
2023/01/15 10:08:06;;;;;;;90.47;68.50;;;18.40;53.30;;;;;;4998749;28;20326;-56
2023/01/15 10:10:35;;;;;;;74.05;59.30;;;18.30;53.00;;;;;;5017074;28;20181;-55
2023/01/15 10:13:24;;;;;;;74.68;58.05;;;18.40;52.40;;;;;;4998862;28;20585;-56
2023/01/15 10:15:51;;;;;;;65.65;52.13;;;18.30;52.10;;;;;;5016599;28;20185;-55
2023/01/15 10:18:20;;;;;;;61.13;47.70;;;18.30;51.90;;;;;;5016393;28;20216;-55
2023/01/15 10:21:07;;;;;;;53.22;44.33;;;18.30;51.70;;;;;;4998552;28;20197;-55
2023/01/15 10:23:41;;;;;;;52.75;41.40;;;18.40;51.40;;;;;;5016771;28;20616;-55
2023/01/15 10:26:17;;;;;;;50.85;40.10;;;18.40;51.10;;;;;;4998488;28;20240;-56
2023/01/15 10:28:58;;;;;;;47.00;38.90;;;18.50;50.90;;;;;;5016695;28;20173;-56
2023/01/15 10:31:32;;;;;;;45.35;34.90;;;18.50;50.80;;;;;;4998758;28;20242;-55
2023/01/15 10:34:07;;;;;;;44.67;33.28;;;18.50;50.50;;;;;;5015093;28;20211;-56
2023/01/15 10:36:35;;;;;;;42.10;33.75;;;18.50;50.20;;;;;;5016509;28;20216;-56
2023/01/15 10:39:10;;;;;;;40.10;32.10;;;18.50;50.10;;;;;;5015940;28;20196;-56
2023/01/15 10:41:46;;;;;;;37.42;31.58;;;18.50;50.00;;;;;;4998195;28;20637;-55
2023/01/15 10:44:15;;;;;;;39.72;31.27;;;18.40;49.90;;;;;;5016343;28;20172;-55
2023/01/15 10:46:42;;;;;;;35.58;28.33;;;18.40;49.90;;;;;;5015789;28;20211;-55
2023/01/15 10:49:12;;;;;;;34.90;28.38;;;18.30;49.80;;;;;;5015729;28;20197;-55
2023/01/15 10:51:42;;;;;;;34.17;27.45;;;18.30;50.00;;;;;;5015644;28;20205;-55
2023/01/15 10:54:15;;;;;;;28.60;23.33;;;18.30;50.10;;;;;;5015624;28;20200;-55
2023/01/15 10:56:44;;;;;;;30.67;24.45;;;18.30;50.10;;;;;;4997879;28;20227;-55
2023/01/15 10:59:15;;;;;;;32.15;24.10;;;18.30;50.00;;;;;;5015785;28;20181;-55
2023/01/15 11:01:42;;;;;;;30.60;24.55;;;18.40;49.80;;;;;;5015986;28;20173;-56
2023/01/15 11:04:12;;;;;;;30.27;23.98;;;18.40;49.50;;;;;;4997266;28;20315;-55
2023/01/15 11:06:39;;;;;;;28.38;23.25;;;18.40;50.10;;;;;;5015507;28;20219;-55
2023/01/15 11:09:07;;;;;;;24.40;20.45;;;18.50;49.20;;;;;;5015312;28;20232;-55
2023/01/15 11:19:47;;;;;;;23.45;19.27;;;18.50;48.70;;;;;;5016111;28;20252;-55
2023/01/15 11:22:17;;;;;;;23.92;18.58;;;18.50;49.00;;;;;;5014358;28;20233;-55
2023/01/15 11:24:49;;;;;;;22.98;18.52;;;18.50;48.80;;;;;;5015068;28;20247;-55
2023/01/15 11:27:19;;;;;;;20.52;17.05;;;18.50;48.80;;;;;;4997540;28;20263;-55
2023/01/15 11:29:51;;;;;;;20.92;16.83;;;18.50;48.70;;;;;;5015279;28;20217;-55
2023/01/15 11:32:29;;;;;;;20.17;15.57;;;18.40;48.10;;;;;;5014762;28;20204;-55
2023/01/15 11:34:58;;;;;;;19.83;16.10;;;18.50;48.20;;;;;;4997478;28;20205;-55
2023/01/15 11:37:25;;;;;;;20.55;15.48;;;18.50;48.40;;;;;;5015032;28;20299;-55
2023/01/15 11:39:53;;;;;;;19.50;15.10;;;18.50;48.40;;;;;;4997265;28;20197;-55
2023/01/15 11:51:01;;;;;;;16.70;13.85;;;18.40;48.20;;;;;;5014686;28;20544;-56
2023/01/15 11:53:32;;;;;;;15.38;13.10;;;18.40;48.10;;;;;;4997112;28;20702;-56
2023/01/15 11:56:00;;;;;;;16.42;12.07;;;18.40;48.50;;;;;;5014994;28;20177;-55
2023/01/15 11:58:31;;;;;;;15.00;12.98;;;18.30;48.30;;;;;;4997034;28;20207;-55
2023/01/15 12:00:58;;;;;;;13.63;12.02;;;18.30;48.40;;;;;;5014865;28;20227;-56
2023/01/15 12:03:26;;;;;;;12.80;11.18;;;18.30;48.20;;;;;;5014864;28;20247;-57
2023/01/15 12:05:56;;;;;;;13.27;10.98;;;18.30;48.10;;;;;;5014774;28;20197;-56
2023/01/15 12:08:30;;;;;;;15.23;12.00;;;18.30;48.30;;;;;;4996821;28;20312;-55
2023/01/15 12:11:05;;;;;;;17.45;12.25;;;18.30;48.20;;;;;;4996946;28;20638;-56
2023/01/15 12:13:37;;;;;;;14.18;11.23;;;18.30;48.40;;;;;;4996931;28;20247;-60
2023/01/15 12:16:07;;;;;;;11.60;9.77;;;18.30;48.30;;;;;;5014226;28;20224;-56
2023/01/15 12:18:55;;;;;;;12.55;10.10;;;18.30;48.50;;;;;;4996841;28;20208;-55
2023/01/15 12:21:34;;;;;;;13.10;10.00;;;18.20;48.50;;;;;;5014727;28;20177;-55
2023/01/15 12:24:30;;;;;;;11.75;9.88;;;18.20;48.50;;;;;;5012976;28;20200;-55
2023/01/15 12:27:05;;;;;;;12.15;9.38;;;18.20;48.10;;;;;;5007802;28;20304;-55
2023/01/15 12:29:38;;;;;;;11.00;8.70;;;18.20;48.70;;;;;;5014171;28;20185;-55
2023/01/15 12:32:07;;;;;;;13.07;9.30;;;18.20;48.00;;;;;;4996451;28;20223;-55
2023/01/15 12:34:37;;;;;;;10.80;8.68;;;18.20;48.40;;;;;;5014421;28;20722;-55
2023/01/15 12:37:06;;;;;;;10.60;8.65;;;18.10;48.10;;;;;;4996585;28;20225;-55
2023/01/15 12:39:34;;;;;;;9.98;8.48;;;18.20;48.20;;;;;;5014031;28;20189;-56
2023/01/15 12:45:04;;;;;;;9.95;7.60;;;18.20;48.10;;;;;;5013848;28;20172;-54
2023/01/15 12:47:34;;;;;;;9.98;7.35;;;18.20;48.60;;;;;;5014244;28;20218;-55
2023/01/15 12:50:03;;;;;;;9.65;7.90;;;18.20;47.90;;;;;;5013680;28;20250;-55
2023/01/15 12:52:33;;;;;;;9.32;7.65;;;18.10;48.20;;;;;;5013641;28;20219;-55
2023/01/15 12:55:04;;;;;;;8.95;6.97;;;18.10;48.10;;;;;;4996098;28;20200;-55
2023/01/15 12:57:33;;;;;;;7.40;6.47;;;18.10;47.80;;;;;;5013604;28;20311;-55
2023/01/15 13:00:04;;;;;;;9.57;6.63;;;18.20;48.00;;;;;;5013390;28;20189;-56
2023/01/15 13:02:36;;;;;;;9.93;7.20;;;18.10;47.90;;;;;;5013587;28;20191;-55
2023/01/15 13:05:12;;;;;;;7.15;5.82;;;18.10;48.40;;;;;;5013683;28;20185;-55
2023/01/15 13:07:40;;;;;;;8.20;6.65;;;18.20;48.30;;;;;;5013207;28;20216;-56
2023/01/15 13:10:10;;;;;;;8.10;5.93;;;18.20;47.90;;;;;;5013189;28;20185;-55
2023/01/15 13:12:38;;;;;;;8.68;6.05;;;18.20;47.90;;;;;;5013093;28;20714;-55
2023/01/15 13:15:11;;;;;;;6.97;5.15;;;18.20;47.60;;;;;;5013157;28;20223;-55
2023/01/15 13:17:43;;;;;;;6.53;5.53;;;18.20;47.70;;;;;;5013526;28;20205;-55
2023/01/15 13:20:23;;;;;;;7.85;5.53;;;18.20;47.70;;;;;;4995436;28;20197;-55
2023/01/15 13:22:54;;;;;;;5.63;4.97;;;18.20;47.70;;;;;;4995695;28;20684;-55
2023/01/15 13:25:46;;;;;;;6.13;4.95;;;18.20;47.60;;;;;;5013240;28;20219;-55
2023/01/15 13:28:21;;;;;;;6.20;5.10;;;18.20;47.70;;;;;;5015121;28;20213;-56
2023/01/15 13:30:56;;;;;;;5.78;4.68;;;18.20;47.70;;;;;;5017602;28;20181;-56
2023/01/15 13:33:26;;;;;;;5.22;4.55;;;18.20;47.50;;;;;;5000306;28;20231;-55
2023/01/15 13:35:55;;;;;;;7.45;4.63;;;18.20;47.50;;;;;;5017419;28;20185;-55
2023/01/15 13:38:24;;;;;;;6.13;4.65;;;18.20;48.10;;;;;;4999235;28;20225;-55
2023/01/15 13:40:52;;;;;;;6.63;4.80;;;18.20;47.40;;;;;;5016924;28;20275;-55
2023/01/15 13:43:27;;;;;;;5.15;4.05;;;18.20;47.40;;;;;;5016884;28;20180;-54